Time;durP1;ratioP1;P1;durP2;ratioP2;P2;SDS_P1;SDS_P2;PMS_P1;PMS_P2;Temp;Humidity;BMP_temperature;BMP_pressure;BME280_temperature;BME280_humidity;BME280_pressure;Samples;Min_cycle;Max_cycle;Signal;HPM_P1;HPM_P2
2022/07/10 00:00:29;;;;;;;5.20;1.33;;;15.10;70.40;;;;;;5115029;28;20337;-38
2022/07/10 00:02:55;;;;;;;5.78;1.13;;;15.20;69.90;;;;;;5114135;28;20026;-39
2022/07/10 00:05:22;;;;;;;7.47;2.17;;;15.20;70.10;;;;;;5113196;28;20055;-40
2022/07/10 00:07:48;;;;;;;6.03;1.55;;;15.20;69.80;;;;;;5114340;28;20034;-40
2022/07/10 00:10:15;;;;;;;2.55;1.30;;;15.20;69.70;;;;;;5114559;28;20066;-38
2022/07/10 00:12:40;;;;;;;3.42;0.80;;;15.20;69.50;;;;;;5114888;28;20357;-38
2022/07/10 00:15:07;;;;;;;7.75;1.30;;;15.20;70.00;;;;;;5113858;28;20050;-38
2022/07/10 00:17:33;;;;;;;3.42;0.95;;;15.20;69.80;;;;;;5114046;28;20051;-38
2022/07/10 00:20:00;;;;;;;4.10;1.30;;;15.30;69.60;;;;;;5114502;28;20459;-38
2022/07/10 00:22:25;;;;;;;6.70;1.00;;;15.20;69.60;;;;;;5114292;28;20044;-38
2022/07/10 00:24:51;;;;;;;7.38;1.15;;;15.20;69.70;;;;;;5114267;28;20102;-38
2022/07/10 00:27:18;;;;;;;3.55;1.10;;;15.20;70.10;;;;;;5114978;28;20063;-39
2022/07/10 00:29:43;;;;;;;3.33;0.90;;;15.30;69.80;;;;;;5114718;28;20050;-39
2022/07/10 00:32:09;;;;;;;4.38;2.10;;;15.30;69.50;;;;;;5114864;28;20440;-39
2022/07/10 00:34:35;;;;;;;4.28;0.90;;;15.10;70.60;;;;;;5114311;28;20035;-38
2022/07/10 00:37:02;;;;;;;6.65;1.20;;;15.10;70.60;;;;;;5113919;28;20476;-38
2022/07/10 00:39:28;;;;;;;3.42;1.15;;;15.30;70.10;;;;;;5113400;28;20016;-38
2022/07/10 00:41:53;;;;;;;3.45;1.23;;;15.20;70.10;;;;;;5113680;28;20076;-39
2022/07/10 00:44:19;;;;;;;4.65;0.90;;;15.10;70.60;;;;;;5113516;28;20379;-38
2022/07/10 00:46:45;;;;;;;3.15;0.90;;;15.00;71.20;;;;;;5114310;28;20111;-39
2022/07/10 00:49:10;;;;;;;2.75;0.93;;;14.90;71.70;;;;;;5113738;28;20020;-39
2022/07/10 00:51:37;;;;;;;8.38;2.03;;;14.80;72.10;;;;;;5112079;28;20073;-39
2022/07/10 00:54:04;;;;;;;3.10;1.08;;;14.80;72.40;;;;;;5113114;28;20051;-40
2022/07/10 00:56:30;;;;;;;4.43;1.63;;;14.80;72.90;;;;;;5113462;28;20030;-38
2022/07/10 00:58:57;;;;;;;7.10;1.20;;;14.80;72.60;;;;;;5113156;28;20076;-38
2022/07/10 01:01:23;;;;;;;1.83;0.90;;;14.80;72.60;;;;;;5114199;28;20423;-37
2022/07/10 01:03:50;;;;;;;5.55;1.33;;;14.80;73.10;;;;;;5117070;28;20047;-37
2022/07/10 01:06:16;;;;;;;2.05;0.93;;;14.80;72.90;;;;;;5117132;28;20073;-38
2022/07/10 01:08:43;;;;;;;7.10;1.58;;;15.00;72.70;;;;;;5117062;28;20360;-38
2022/07/10 01:11:10;;;;;;;7.30;1.10;;;15.00;72.60;;;;;;5116763;28;20034;-38
2022/07/10 01:13:39;;;;;;;6.68;1.10;;;15.00;72.30;;;;;;5116714;28;20112;-38
2022/07/10 01:16:04;;;;;;;4.97;1.10;;;15.00;72.20;;;;;;5116560;28;20044;-38
2022/07/10 01:18:30;;;;;;;8.30;2.15;;;14.90;72.90;;;;;;5116676;28;20351;-40
2022/07/10 01:20:56;;;;;;;4.95;1.38;;;15.00;72.90;;;;;;5116814;28;20065;-39
2022/07/10 01:23:23;;;;;;;7.15;1.50;;;15.10;72.30;;;;;;5116522;28;20026;-38
2022/07/10 01:25:49;;;;;;;3.38;1.27;;;15.10;72.60;;;;;;5116557;28;20156;-39
2022/07/10 01:28:20;;;;;;;6.80;1.50;;;14.80;73.00;;;;;;5116308;28;20027;-39
2022/07/10 01:30:46;;;;;;;6.90;1.20;;;14.80;73.10;;;;;;5116703;28;20524;-39
2022/07/10 01:33:12;;;;;;;4.00;1.20;;;14.80;73.50;;;;;;5115158;28;20024;-38
2022/07/10 01:35:38;;;;;;;4.85;1.05;;;14.80;73.60;;;;;;5115017;28;20429;-38
2022/07/10 01:38:04;;;;;;;5.55;1.48;;;14.80;73.40;;;;;;5116439;28;20523;-38
2022/07/10 01:40:30;;;;;;;2.65;1.05;;;14.80;73.80;;;;;;5116421;28;20102;-38
2022/07/10 01:42:55;;;;;;;3.83;1.15;;;14.80;73.50;;;;;;5116632;28;20028;-38
2022/07/10 01:45:21;;;;;;;5.15;1.45;;;14.90;73.30;;;;;;5116763;28;20028;-39
2022/07/10 01:47:47;;;;;;;12.77;1.92;;;14.90;73.50;;;;;;5116186;28;20051;-39
2022/07/10 01:50:12;;;;;;;2.60;1.15;;;14.80;73.60;;;;;;5116770;28;20055;-39
2022/07/10 01:52:38;;;;;;;8.05;1.42;;;14.80;73.70;;;;;;5116420;28;20020;-40
2022/07/10 01:55:05;;;;;;;4.72;1.90;;;14.80;74.30;;;;;;5116273;28;20024;-39
2022/07/10 01:57:31;;;;;;;2.40;0.90;;;14.70;74.20;;;;;;5116397;28;20026;-38
2022/07/10 01:59:56;;;;;;;6.47;1.23;;;14.80;74.20;;;;;;5116007;28;20463;-39
2022/07/10 02:02:22;;;;;;;1.45;1.00;;;14.80;74.50;;;;;;5115789;28;20027;-37
2022/07/10 02:04:48;;;;;;;1.55;0.95;;;14.80;74.30;;;;;;5116271;28;20020;-40
2022/07/10 02:07:16;;;;;;;5.90;1.13;;;14.50;74.90;;;;;;5114526;28;20028;-37
2022/07/10 02:09:43;;;;;;;2.92;1.30;;;14.50;75.20;;;;;;5114392;28;20118;-46
2022/07/10 02:12:09;;;;;;;2.65;1.67;;;14.50;75.40;;;;;;5115885;28;20084;-38
2022/07/10 02:14:36;;;;;;;2.65;1.08;;;14.50;75.50;;;;;;5115656;28;20142;-38
2022/07/10 02:17:02;;;;;;;6.10;1.65;;;14.50;75.40;;;;;;5115991;28;20031;-39
2022/07/10 02:19:27;;;;;;;5.85;1.67;;;14.40;75.30;;;;;;5115554;28;20111;-37
2022/07/10 02:21:53;;;;;;;2.72;1.20;;;14.30;75.80;;;;;;5115666;28;20059;-39
2022/07/10 02:24:19;;;;;;;3.72;1.30;;;14.30;76.10;;;;;;5115618;28;20173;-39
2022/07/10 02:26:44;;;;;;;9.70;1.92;;;14.20;76.50;;;;;;5115435;28;20028;-39
2022/07/10 02:29:10;;;;;;;4.15;1.05;;;14.20;76.60;;;;;;5115688;28;20076;-38
2022/07/10 02:31:40;;;;;;;3.83;2.15;;;14.10;76.80;;;;;;5115311;28;20027;-38
2022/07/10 02:34:12;;;;;;;7.75;1.23;;;14.20;76.90;;;;;;5115503;28;20031;-38
2022/07/10 02:36:38;;;;;;;6.28;1.75;;;14.20;77.00;;;;;;5115449;28;20058;-39
2022/07/10 02:39:05;;;;;;;5.53;1.20;;;14.20;76.70;;;;;;5115202;28;20012;-39
2022/07/10 02:41:31;;;;;;;4.30;1.73;;;14.20;77.10;;;;;;5115116;28;20020;-39
2022/07/10 02:43:57;;;;;;;4.78;1.52;;;14.10;77.10;;;;;;5115027;28;20077;-37
2022/07/10 02:46:23;;;;;;;3.33;1.45;;;14.30;76.80;;;;;;5114943;28;20024;-38
2022/07/10 02:48:49;;;;;;;5.45;2.08;;;14.40;76.40;;;;;;5115036;28;20555;-39
2022/07/10 02:51:14;;;;;;;7.18;1.55;;;14.30;76.20;;;;;;5114886;28;20027;-38
2022/07/10 02:53:40;;;;;;;2.55;1.10;;;14.30;76.20;;;;;;5114918;28;20359;-38
2022/07/10 02:56:06;;;;;;;7.47;1.55;;;14.40;76.40;;;;;;5114762;28;20028;-38
2022/07/10 02:58:32;;;;;;;3.25;1.25;;;14.50;76.40;;;;;;5114781;28;20471;-38
2022/07/10 03:00:58;;;;;;;7.03;1.40;;;14.50;75.80;;;;;;5096492;28;20051;-38
2022/07/10 03:03:24;;;;;;;2.28;0.88;;;14.50;75.80;;;;;;5114931;28;20064;-40
2022/07/10 03:05:49;;;;;;;4.57;1.15;;;14.50;75.80;;;;;;5114818;28;20111;-38
2022/07/10 03:08:15;;;;;;;7.28;2.00;;;14.50;76.00;;;;;;5114464;28;20027;-38
2022/07/10 20:05:37;;;;;;;3.00;1.60;;;18.70;72.00;;;;;;4991879;28;20467;-49
2022/07/10 20:08:03;;;;;;;4.75;2.47;;;18.70;72.20;;;;;;4991493;28;20031;-50
2022/07/10 20:10:29;;;;;;;5.75;2.50;;;18.80;71.90;;;;;;4990380;28;20077;-47
2022/07/10 20:12:55;;;;;;;3.20;1.45;;;18.80;71.30;;;;;;4991097;28;20454;-47
2022/07/10 20:15:20;;;;;;;4.15;1.70;;;18.80;71.00;;;;;;4991422;28;20030;-47
2022/07/10 20:17:46;;;;;;;4.15;1.75;;;18.80;71.50;;;;;;4991485;28;20029;-49
2022/07/10 20:20:12;;;;;;;3.88;2.13;;;18.90;71.20;;;;;;4991221;28;20384;-50
2022/07/10 20:22:38;;;;;;;2.20;1.30;;;18.90;72.20;;;;;;4992009;28;20442;-49
2022/07/10 20:25:04;;;;;;;3.42;1.88;;;18.90;72.20;;;;;;4991143;28;20023;-47
2022/07/10 20:27:30;;;;;;;3.60;1.40;;;18.80;72.60;;;;;;4990821;28;20076;-48
2022/07/10 20:29:56;;;;;;;4.53;2.42;;;18.80;71.80;;;;;;4990072;28;20117;-54
2022/07/10 20:32:22;;;;;;;4.40;3.42;;;18.80;72.20;;;;;;4990886;28;20045;-48
2022/07/10 20:34:48;;;;;;;8.25;4.43;;;18.80;72.50;;;;;;4990634;28;20026;-48
2022/07/10 20:39:59;;;;;;;4.78;2.10;;;18.80;73.40;;;;;;4990635;28;20138;-46
2022/07/10 20:42:25;;;;;;;3.20;1.60;;;18.90;73.40;;;;;;4990671;28;20073;-48
2022/07/10 20:44:51;;;;;;;4.05;1.98;;;18.80;73.40;;;;;;4991139;28;20049;-52
2022/07/10 20:47:17;;;;;;;4.97;2.13;;;18.80;74.30;;;;;;4990519;28;20029;-58
2022/07/10 20:49:42;;;;;;;10.38;2.40;;;18.70;74.80;;;;;;4991010;28;20101;-39
2022/07/10 20:52:08;;;;;;;5.47;1.88;;;18.60;74.90;;;;;;4990480;28;20027;-39
2022/07/10 20:54:34;;;;;;;5.90;1.60;;;18.50;75.30;;;;;;4990978;28;20027;-39
2022/07/10 20:57:00;;;;;;;5.13;2.22;;;18.60;75.60;;;;;;4990815;28;20030;-39
2022/07/10 20:59:26;;;;;;;2.42;1.92;;;18.60;75.90;;;;;;4988903;28;20030;-39
2022/07/10 21:01:51;;;;;;;5.38;3.60;;;18.60;75.90;;;;;;4990249;28;20031;-39
2022/07/10 21:04:17;;;;;;;5.13;1.95;;;18.50;75.90;;;;;;4999223;28;20141;-39
2022/07/10 21:06:42;;;;;;;5.95;2.35;;;18.40;75.90;;;;;;5009851;28;20181;-40
2022/07/10 21:09:09;;;;;;;6.25;2.08;;;18.40;75.70;;;;;;5009608;28;20033;-38
2022/07/10 21:11:35;;;;;;;2.30;1.50;;;18.40;76.00;;;;;;5009952;28;20064;-38
2022/07/10 21:14:01;;;;;;;6.75;2.00;;;18.40;75.10;;;;;;5008756;28;20027;-39
2022/07/10 21:16:27;;;;;;;3.47;1.83;;;18.50;74.30;;;;;;4999435;28;20470;-39
2022/07/10 21:18:53;;;;;;;5.57;1.92;;;18.60;73.80;;;;;;4996396;28;20041;-38
2022/07/10 21:21:19;;;;;;;3.22;2.33;;;18.70;74.00;;;;;;4996735;28;20031;-39
2022/07/10 21:23:45;;;;;;;4.65;2.10;;;18.70;73.30;;;;;;4996546;28;20057;-40
2022/07/10 21:26:11;;;;;;;2.60;2.00;;;18.80;73.50;;;;;;4996440;28;20046;-40
2022/07/10 21:28:37;;;;;;;5.90;1.98;;;18.80;73.40;;;;;;4996497;28;20033;-39
2022/07/10 21:31:03;;;;;;;3.53;2.30;;;19.00;72.40;;;;;;4996302;28;20031;-39
2022/07/10 21:33:29;;;;;;;3.72;2.08;;;18.80;72.80;;;;;;4997016;28;20454;-39
2022/07/10 21:35:54;;;;;;;6.38;2.30;;;18.90;72.20;;;;;;4996390;28;20036;-38
2022/07/10 21:38:20;;;;;;;3.70;2.40;;;18.90;72.40;;;;;;4995074;28;20317;-39
2022/07/10 21:40:47;;;;;;;4.88;2.17;;;19.00;72.10;;;;;;4962472;28;20383;-38
2022/07/10 21:43:12;;;;;;;5.03;2.17;;;19.00;72.10;;;;;;4996316;28;20367;-39
2022/07/10 21:45:38;;;;;;;4.38;2.20;;;19.00;71.90;;;;;;4996340;28;20027;-40
2022/07/10 21:48:05;;;;;;;5.20;3.03;;;19.20;71.50;;;;;;4996374;28;20108;-39
2022/07/10 21:50:30;;;;;;;3.33;2.55;;;19.10;71.50;;;;;;4996087;28;20030;-38
2022/07/10 21:52:59;;;;;;;5.65;2.70;;;19.10;71.60;;;;;;4995289;28;20054;-38
2022/07/10 21:55:26;;;;;;;10.88;2.95;;;18.90;72.20;;;;;;4995909;28;20030;-37
2022/07/10 21:57:52;;;;;;;5.82;2.47;;;19.10;71.50;;;;;;4994802;28;20483;-39
2022/07/10 22:00:19;;;;;;;4.68;2.15;;;19.10;71.60;;;;;;4996352;28;20032;-39
2022/07/10 22:02:45;;;;;;;4.63;2.50;;;19.00;71.70;;;;;;4996308;28;20309;-38
2022/07/10 22:05:11;;;;;;;4.20;2.42;;;19.00;72.10;;;;;;4995621;28;20490;-39
2022/07/10 22:07:37;;;;;;;8.90;2.80;;;19.00;71.90;;;;;;4995019;28;20030;-45
2022/07/10 22:10:04;;;;;;;3.00;1.95;;;18.90;72.20;;;;;;4994302;28;20046;-38
2022/07/10 22:12:30;;;;;;;4.97;2.55;;;18.90;72.20;;;;;;4996306;28;20466;-38
2022/07/10 22:14:56;;;;;;;3.30;2.40;;;18.90;72.10;;;;;;4995457;28;20030;-40
2022/07/10 22:17:23;;;;;;;5.15;2.08;;;18.90;72.50;;;;;;4994313;28;20176;-38
2022/07/10 22:19:48;;;;;;;3.05;2.28;;;18.80;72.50;;;;;;4995554;28;20034;-38
2022/07/10 22:22:14;;;;;;;4.68;2.63;;;18.90;72.50;;;;;;4995432;28;20035;-39
2022/07/10 22:24:40;;;;;;;6.80;2.42;;;18.90;72.60;;;;;;4995230;28;20490;-38
2022/07/10 22:27:06;;;;;;;3.45;2.40;;;18.80;72.80;;;;;;4994436;28;20053;-38
2022/07/10 22:29:32;;;;;;;4.50;2.60;;;18.80;72.80;;;;;;4995215;28;20023;-38
2022/07/10 22:31:58;;;;;;;3.65;2.20;;;18.70;73.50;;;;;;4995718;28;20494;-39
2022/07/10 22:34:23;;;;;;;4.15;1.95;;;18.70;73.40;;;;;;4995425;28;20412;-39
2022/07/10 22:36:49;;;;;;;2.53;2.13;;;18.70;73.60;;;;;;4994834;28;20060;-38
2022/07/10 22:39:15;;;;;;;2.92;2.35;;;18.70;73.80;;;;;;4994989;28;20029;-38
2022/07/10 22:41:41;;;;;;;7.68;2.38;;;18.60;74.20;;;;;;4995178;28;20336;-38
2022/07/10 22:44:07;;;;;;;7.47;3.25;;;18.70;73.70;;;;;;4994947;28;20030;-39
2022/07/10 22:46:33;;;;;;;6.13;2.67;;;18.60;74.10;;;;;;4995331;28;20061;-40
2022/07/10 22:48:59;;;;;;;6.95;2.88;;;18.60;74.60;;;;;;4995145;28;20479;-39
2022/07/10 22:51:24;;;;;;;7.95;3.15;;;18.60;74.30;;;;;;4995193;28;20098;-37
2022/07/10 22:53:50;;;;;;;7.32;3.08;;;18.40;74.90;;;;;;4995215;28;20022;-40
2022/07/10 22:56:18;;;;;;;8.75;3.17;;;18.50;75.00;;;;;;4995184;28;20030;-40
2022/07/10 22:58:44;;;;;;;6.00;3.13;;;18.50;74.80;;;;;;4993191;28;20038;-38
2022/07/10 23:01:11;;;;;;;6.07;2.80;;;18.50;75.10;;;;;;4994601;28;20029;-38
2022/07/10 23:03:37;;;;;;;5.45;3.40;;;18.40;75.30;;;;;;4993272;28;20096;-38
2022/07/10 23:06:03;;;;;;;18.95;2.80;;;18.40;76.00;;;;;;4994617;28;20025;-39
2022/07/10 23:08:29;;;;;;;6.40;2.70;;;18.40;75.80;;;;;;4993289;28;20027;-37
2022/07/10 23:10:55;;;;;;;4.25;2.97;;;18.40;76.10;;;;;;4994803;28;20029;-39
2022/07/10 23:13:20;;;;;;;8.25;2.75;;;18.40;76.20;;;;;;4993449;28;20033;-39
2022/07/10 23:15:47;;;;;;;8.35;3.20;;;18.40;76.40;;;;;;4994278;28;20030;-38
2022/07/10 23:18:13;;;;;;;10.10;3.35;;;18.30;76.70;;;;;;4994366;28;20331;-39
2022/07/10 23:20:39;;;;;;;7.40;3.08;;;18.30;76.70;;;;;;4994171;28;20026;-37
2022/07/10 23:23:04;;;;;;;9.65;3.17;;;18.30;76.70;;;;;;4992856;28;20029;-37
2022/07/10 23:25:30;;;;;;;6.88;3.38;;;18.30;77.20;;;;;;4994104;28;20113;-39
2022/07/10 23:27:56;;;;;;;5.75;3.17;;;18.30;77.10;;;;;;4992862;28;20073;-38
2022/07/10 23:30:21;;;;;;;8.55;3.35;;;18.30;76.90;;;;;;4994300;28;20419;-37
2022/07/10 23:32:47;;;;;;;13.73;3.88;;;18.30;77.40;;;;;;4992858;28;20494;-43
2022/07/10 23:35:13;;;;;;;10.68;3.17;;;18.30;77.40;;;;;;4994217;28;20023;-38
2022/07/10 23:37:38;;;;;;;4.53;3.03;;;18.40;77.10;;;;;;4993947;28;20066;-38
2022/07/10 23:40:05;;;;;;;7.53;3.28;;;18.20;77.90;;;;;;4993448;28;20390;-38
2022/07/10 23:42:31;;;;;;;9.85;3.78;;;18.20;78.40;;;;;;4992588;28;20038;-38
2022/07/10 23:44:58;;;;;;;4.55;3.30;;;18.30;78.10;;;;;;4994099;28;20045;-38
2022/07/10 23:47:23;;;;;;;8.65;3.75;;;18.20;78.10;;;;;;4993834;28;20093;-38
2022/07/10 23:50:07;;;;;;;6.20;3.60;;;18.20;77.90;;;;;;4994284;28;20459;-38
2022/07/10 23:52:36;;;;;;;4.22;2.47;;;18.20;78.40;;;;;;4993985;28;20117;-38
2022/07/10 23:55:03;;;;;;;8.00;3.13;;;18.20;78.00;;;;;;4992603;28;20030;-39
2022/07/10 23:57:29;;;;;;;6.10;2.85;;;18.20;78.00;;;;;;4993736;28;20043;-38
2022/07/10 23:59:54;;;;;;;9.52;3.22;;;18.20;77.90;;;;;;4993830;28;20470;-39
